Time;durP1;ratioP1;P1;durP2;ratioP2;P2;SDS_P1;SDS_P2;PMS_P1;PMS_P2;Temp;Humidity;BMP_temperature;BMP_pressure;BME280_temperature;BME280_humidity;BME280_pressure;Samples;Min_cycle;Max_cycle;Signal;HPM_P1;HPM_P2
2023/07/25 00:15:19;;;;;;;8.63;2.20;;;13.90;99.90;;;;;;5039761;28;20109;-49
2023/07/25 00:17:45;;;;;;;7.90;1.58;;;13.90;99.90;;;;;;5055537;28;20055;-50
2023/07/25 00:43:50;;;;;;;6.18;1.77;;;13.80;99.90;;;;;;5060251;28;20041;-50
2023/07/25 00:46:16;;;;;;;2.60;1.67;;;13.70;99.90;;;;;;5054895;28;20033;-53
2023/07/25 00:48:44;;;;;;;10.68;2.00;;;13.70;99.90;;;;;;5054802;28;20025;-51
2023/07/25 00:51:10;;;;;;;4.07;1.92;;;13.80;99.90;;;;;;5054646;28;20021;-51
2023/07/25 00:53:36;;;;;;;4.65;1.60;;;13.80;99.90;;;;;;5053894;28;20024;-40
2023/07/25 00:56:03;;;;;;;7.22;1.80;;;13.70;99.90;;;;;;5053061;28;20111;-40
2023/07/25 00:58:29;;;;;;;2.90;1.58;;;13.70;99.90;;;;;;5055136;28;20032;-48
2023/07/25 01:01:03;;;;;;;5.88;1.65;;;13.70;99.90;;;;;;5054743;28;20033;-41
2023/07/25 01:03:29;;;;;;;3.05;1.55;;;13.60;99.90;;;;;;5052793;28;20025;-41
2023/07/25 01:05:56;;;;;;;6.13;2.40;;;13.60;99.90;;;;;;5053190;28;20043;-40
2023/07/25 01:08:22;;;;;;;4.20;1.70;;;13.60;99.90;;;;;;5054588;28;20096;-38
2023/07/25 01:10:48;;;;;;;4.85;1.38;;;13.60;99.90;;;;;;5050778;28;20113;-39
2023/07/25 01:13:13;;;;;;;3.13;1.67;;;13.50;99.90;;;;;;5054565;28;20033;-41
2023/07/25 01:15:39;;;;;;;6.35;1.20;;;13.50;99.90;;;;;;5053913;28;20064;-40
2023/07/25 01:18:06;;;;;;;7.30;1.75;;;13.50;99.90;;;;;;5054162;28;20029;-39
2023/07/25 01:20:34;;;;;;;4.67;1.70;;;13.50;99.90;;;;;;5054545;28;20048;-46
2023/07/25 01:23:01;;;;;;;;;;;13.50;99.90;;;;;;5054557;28;20280;-39
2023/07/25 01:25:27;;;;;;;5.72;2.15;;;13.40;99.90;;;;;;5052625;28;19913;-39
2023/07/25 01:27:52;;;;;;;2.08;1.50;;;13.40;99.90;;;;;;5054346;28;20424;-40
2023/07/25 01:30:18;;;;;;;1.98;1.77;;;13.40;99.90;;;;;;5054418;28;20501;-39
2023/07/25 01:32:44;;;;;;;3.58;1.80;;;13.40;99.90;;;;;;5054255;28;20029;-40
2023/07/25 01:35:10;;;;;;;5.35;1.35;;;13.40;99.90;;;;;;5053237;28;20418;-42
2023/07/25 01:37:35;;;;;;;5.53;1.90;;;13.30;99.90;;;;;;5053825;28;20028;-39
2023/07/25 01:40:02;;;;;;;4.78;1.73;;;13.30;99.90;;;;;;5052574;28;20105;-40
2023/07/25 01:42:27;;;;;;;5.80;2.63;;;13.30;99.90;;;;;;5052160;28;20129;-42
2023/07/25 01:44:53;;;;;;;5.65;1.58;;;13.30;99.90;;;;;;5053524;28;20501;-39
2023/07/25 01:47:18;;;;;;;4.18;1.55;;;13.20;99.90;;;;;;5053896;28;20135;-38
2023/07/25 01:49:44;;;;;;;5.30;2.13;;;13.20;99.90;;;;;;5053896;28;20509;-39
2023/07/25 01:52:10;;;;;;;5.38;1.73;;;13.20;99.90;;;;;;5052506;28;20035;-40
2023/07/25 01:54:35;;;;;;;2.42;1.58;;;13.20;99.90;;;;;;5051981;28;20028;-39
2023/07/25 01:57:01;;;;;;;1.95;1.85;;;13.20;99.90;;;;;;5052985;28;20108;-39
2023/07/25 01:59:28;;;;;;;2.97;1.77;;;13.10;99.90;;;;;;5040508;28;20486;-42
2023/07/25 02:01:53;;;;;;;3.58;1.88;;;13.10;99.90;;;;;;5053616;28;20028;-43
2023/07/25 02:04:19;;;;;;;3.28;1.67;;;13.10;99.90;;;;;;5048635;28;20405;-40
2023/07/25 02:06:45;;;;;;;3.55;1.52;;;13.10;99.90;;;;;;5052986;28;20019;-56
2023/07/25 02:09:11;;;;;;;2.33;1.90;;;13.10;99.90;;;;;;5051914;28;20055;-41
2023/07/25 02:11:36;;;;;;;1.77;1.35;;;13.00;99.90;;;;;;5051868;28;20017;-41
2023/07/25 02:14:02;;;;;;;2.15;1.33;;;13.10;99.90;;;;;;5044591;28;20017;-38
2023/07/25 02:16:28;;;;;;;4.45;1.70;;;13.00;99.90;;;;;;5050486;28;20401;-40
2023/07/25 02:18:53;;;;;;;3.63;1.63;;;13.00;99.90;;;;;;5050328;28;20104;-41
2023/07/25 02:21:50;;;;;;;10.35;1.38;;;13.00;99.90;;;;;;5051455;28;20017;-38
2023/07/25 02:24:16;;;;;;;2.38;1.67;;;13.00;99.90;;;;;;5049056;28;20592;-38
2023/07/25 02:26:41;;;;;;;4.70;1.50;;;13.00;99.90;;;;;;5051647;28;20119;-39
2023/07/25 02:29:07;;;;;;;2.25;1.35;;;13.00;99.90;;;;;;5051839;28;20025;-39
2023/07/25 02:31:33;;;;;;;2.28;1.40;;;13.00;99.90;;;;;;5052207;28;20489;-40
2023/07/25 02:33:58;;;;;;;2.15;1.48;;;13.00;99.90;;;;;;5047976;28;20029;-39
2023/07/25 02:36:24;;;;;;;2.10;1.60;;;13.00;99.90;;;;;;5051943;28;20025;-39
2023/07/25 02:38:50;;;;;;;4.75;1.65;;;13.00;99.90;;;;;;5049909;28;20109;-39
2023/07/25 02:41:16;;;;;;;3.58;1.35;;;13.00;99.90;;;;;;5052798;28;20025;-40
2023/07/25 02:43:41;;;;;;;2.85;1.40;;;13.10;99.90;;;;;;5048785;28;20026;-38
2023/07/25 02:46:07;;;;;;;8.43;1.63;;;13.10;99.90;;;;;;5052758;28;20033;-45
2023/07/25 02:48:33;;;;;;;3.15;1.50;;;13.10;99.90;;;;;;5051346;28;20544;-47
2023/07/25 02:50:58;;;;;;;3.67;1.52;;;13.10;99.90;;;;;;5049875;28;20021;-39
2023/07/25 02:53:24;;;;;;;4.20;1.70;;;13.10;99.90;;;;;;5046848;28;20462;-40
2023/07/25 02:55:50;;;;;;;4.10;1.52;;;13.10;99.90;;;;;;5052433;28;20036;-41
2023/07/25 02:58:15;;;;;;;2.72;1.45;;;13.10;99.90;;;;;;5050983;28;20075;-39
2023/07/25 03:00:41;;;;;;;4.05;2.05;;;13.10;99.90;;;;;;5051636;28;20064;-40
2023/07/25 03:03:07;;;;;;;7.40;1.98;;;13.10;99.90;;;;;;5051669;28;20075;-39
2023/07/25 03:05:32;;;;;;;3.22;1.48;;;13.10;99.90;;;;;;5046250;28;20028;-39
2023/07/25 03:07:58;;;;;;;2.38;1.98;;;13.10;99.90;;;;;;5051860;28;20024;-39
2023/07/25 03:10:23;;;;;;;4.57;1.77;;;13.10;99.90;;;;;;5050461;28;20095;-40
2023/07/25 03:12:49;;;;;;;6.32;1.67;;;13.10;99.90;;;;;;5048636;28;20470;-38
2023/07/25 03:15:15;;;;;;;8.70;2.38;;;13.10;99.90;;;;;;5051218;28;20024;-39
2023/07/25 03:17:40;;;;;;;4.35;1.80;;;13.10;99.90;;;;;;5051132;28;20017;-38
2023/07/25 03:20:07;;;;;;;2.67;1.30;;;13.20;99.90;;;;;;5052030;28;20067;-42
2023/07/25 03:22:32;;;;;;;4.30;1.70;;;13.10;99.90;;;;;;5047648;28;20104;-39
2023/07/25 03:24:58;;;;;;;5.63;1.80;;;13.10;99.90;;;;;;5049544;28;20108;-48
2023/07/25 03:27:24;;;;;;;3.65;1.90;;;13.10;99.90;;;;;;5051006;28;20116;-41
2023/07/25 03:29:50;;;;;;;1.83;1.23;;;13.10;99.90;;;;;;5051621;28;20021;-38
2023/07/25 03:32:16;;;;;;;4.03;1.40;;;13.00;99.90;;;;;;5051588;28;20036;-38
2023/07/25 03:34:42;;;;;;;12.52;2.30;;;13.10;99.90;;;;;;5045396;28;20565;-40
2023/07/25 03:37:07;;;;;;;3.08;1.63;;;13.10;99.90;;;;;;5037950;28;20390;-40
2023/07/25 03:39:33;;;;;;;2.55;1.40;;;13.10;99.90;;;;;;5051455;28;20029;-38
2023/07/25 03:41:59;;;;;;;3.08;1.23;;;13.10;99.90;;;;;;5051552;28;20075;-39
2023/07/25 03:44:25;;;;;;;4.15;1.60;;;13.20;99.90;;;;;;5050874;28;20490;-40
2023/07/25 03:46:50;;;;;;;1.52;1.42;;;13.20;99.90;;;;;;5055909;28;20040;-37
2023/07/25 03:49:16;;;;;;;7.15;1.20;;;13.20;99.90;;;;;;5056138;28;20028;-39
2023/07/25 03:51:41;;;;;;;2.03;1.23;;;13.20;99.90;;;;;;5056122;28;20036;-40
2023/07/25 03:54:07;;;;;;;5.68;1.33;;;13.30;99.90;;;;;;5054068;28;20512;-40
2023/07/25 03:56:33;;;;;;;2.55;1.13;;;13.30;99.90;;;;;;5055280;28;20504;-39
2023/07/25 03:59:00;;;;;;;6.88;1.17;;;13.30;99.90;;;;;;5054294;28;20096;-39
2023/07/25 04:01:26;;;;;;;2.03;0.90;;;13.40;99.90;;;;;;5054672;28;20504;-40
2023/07/25 04:03:51;;;;;;;2.58;1.45;;;13.40;99.90;;;;;;5051245;28;20033;-39
2023/07/25 04:06:18;;;;;;;3.10;1.13;;;13.40;99.90;;;;;;5052771;28;20019;-41
2023/07/25 04:08:44;;;;;;;2.90;1.15;;;13.50;99.90;;;;;;5044498;28;20098;-40
2023/07/25 04:11:11;;;;;;;2.67;1.30;;;13.50;99.90;;;;;;5053130;28;20473;-39
2023/07/25 04:13:37;;;;;;;4.05;1.65;;;13.60;99.90;;;;;;5055533;28;20021;-42
2023/07/25 04:16:03;;;;;;;6.72;1.50;;;13.60;99.90;;;;;;5052523;28;20039;-41
2023/07/25 04:18:28;;;;;;;3.05;1.10;;;13.60;99.90;;;;;;5055548;28;20505;-38
2023/07/25 04:20:54;;;;;;;2.15;1.10;;;13.70;99.90;;;;;;5055573;28;20396;-40
2023/07/25 04:23:21;;;;;;;1.95;1.10;;;13.70;99.90;;;;;;5055520;28;20025;-39
2023/07/25 04:25:48;;;;;;;4.30;1.52;;;13.80;99.90;;;;;;5052999;28;20033;-41
2023/07/25 04:28:14;;;;;;;4.80;1.17;;;13.80;99.90;;;;;;5055711;28;20021;-41
2023/07/25 04:30:40;;;;;;;5.10;1.60;;;13.80;99.90;;;;;;5055482;28;20385;-39
2023/07/25 04:33:06;;;;;;;3.70;1.25;;;13.90;99.90;;;;;;5054386;28;20021;-39
2023/07/25 04:35:32;;;;;;;1.90;1.25;;;13.90;99.90;;;;;;5054256;28;20071;-42
2023/07/25 04:37:57;;;;;;;2.28;1.20;;;13.90;99.90;;;;;;5055231;28;20478;-41
2023/07/25 04:40:23;;;;;;;6.85;1.13;;;14.00;99.90;;;;;;5053838;28;20032;-39
2023/07/25 04:42:48;;;;;;;2.55;1.48;;;14.00;99.90;;;;;;5054936;28;20098;-40
2023/07/25 04:45:14;;;;;;;6.57;2.17;;;14.10;99.90;;;;;;5055069;28;20029;-40
2023/07/25 04:47:40;;;;;;;6.75;1.52;;;14.10;99.90;;;;;;5055271;28;20049;-40
2023/07/25 04:50:06;;;;;;;7.63;1.60;;;14.10;99.90;;;;;;5053886;28;20071;-38
2023/07/25 04:52:31;;;;;;;5.75;1.15;;;14.10;99.90;;;;;;5055094;28;20116;-40
2023/07/25 04:54:58;;;;;;;9.18;2.08;;;14.10;99.90;;;;;;5053658;28;20032;-40
2023/07/25 04:57:25;;;;;;;10.27;2.20;;;14.10;99.90;;;;;;5053221;28;20520;-40
2023/07/25 04:59:51;;;;;;;2.85;1.30;;;14.20;99.90;;;;;;5054146;28;20432;-49
2023/07/25 05:02:19;;;;;;;13.75;1.63;;;14.30;99.90;;;;;;5054544;28;20086;-41
2023/07/25 05:04:45;;;;;;;8.38;1.33;;;14.30;99.90;;;;;;5054539;28;20111;-41
2023/07/25 05:07:12;;;;;;;4.68;0.93;;;14.30;99.90;;;;;;5053026;28;20441;-39
2023/07/25 05:09:38;;;;;;;3.20;1.13;;;14.40;99.90;;;;;;5049318;28;20021;-39
2023/07/25 05:12:04;;;;;;;5.80;1.00;;;14.40;99.90;;;;;;5054250;28;20040;-41
2023/07/25 05:14:30;;;;;;;9.27;1.05;;;14.40;99.90;;;;;;5054556;28;20037;-40
2023/07/25 05:16:56;;;;;;;3.55;0.80;;;14.40;99.90;;;;;;5051960;28;20542;-40
2023/07/25 05:19:23;;;;;;;2.25;0.93;;;14.50;99.90;;;;;;5042948;28;20025;-38
2023/07/25 05:21:48;;;;;;;5.15;1.23;;;14.60;99.90;;;;;;5054638;28;20037;-41
2023/07/25 05:24:15;;;;;;;4.00;0.90;;;14.70;99.90;;;;;;5043413;28;20025;-38
2023/07/25 05:26:41;;;;;;;2.92;0.90;;;14.70;99.90;;;;;;5034418;28;20033;-42
2023/07/25 05:29:06;;;;;;;1.23;1.10;;;14.80;99.90;;;;;;5049858;28;20029;-41
2023/07/25 05:31:32;;;;;;;1.70;0.85;;;14.90;99.90;;;;;;5054221;28;20029;-41
2023/07/25 05:33:58;;;;;;;2.55;1.17;;;14.90;99.90;;;;;;5054237;28;20083;-43
2023/07/25 05:36:24;;;;;;;3.60;0.95;;;14.90;99.90;;;;;;5054142;28;20029;-43
2023/07/25 05:38:50;;;;;;;1.85;0.70;;;15.00;99.90;;;;;;5053983;28;20036;-39
2023/07/25 05:41:20;;;;;;;3.03;0.85;;;15.10;99.90;;;;;;5054327;28;20111;-40
2023/07/25 05:43:46;;;;;;;5.32;1.00;;;15.20;99.90;;;;;;5054056;28;20052;-40
2023/07/25 05:46:47;;;;;;;4.07;1.00;;;15.30;99.90;;;;;;5051691;28;20073;-42
2023/07/25 05:49:12;;;;;;;5.38;0.82;;;15.30;99.90;;;;;;5045892;28;20072;-40
2023/07/25 05:51:38;;;;;;;12.32;1.30;;;15.30;99.90;;;;;;5043261;28;20461;-41
2023/07/25 05:54:04;;;;;;;3.03;1.23;;;15.30;99.90;;;;;;5053992;28;20492;-38
2023/07/25 05:56:29;;;;;;;6.07;1.10;;;15.40;99.90;;;;;;5053749;28;20029;-39
2023/07/25 05:58:55;;;;;;;3.92;1.45;;;15.50;99.90;;;;;;5053667;28;20033;-41
2023/07/25 06:01:21;;;;;;;2.97;1.25;;;15.50;99.90;;;;;;5053617;28;20021;-40
2023/07/25 06:03:46;;;;;;;3.42;1.10;;;15.50;99.90;;;;;;5052913;28;20028;-41
2023/07/25 06:06:12;;;;;;;7.60;1.20;;;15.60;99.90;;;;;;5050360;28;20580;-40
2023/07/25 06:08:38;;;;;;;3.67;1.10;;;15.50;99.90;;;;;;5052698;28;20025;-39
2023/07/25 06:11:03;;;;;;;6.68;0.98;;;15.60;99.90;;;;;;5053736;28;20450;-40
2023/07/25 06:13:29;;;;;;;4.40;0.80;;;15.50;99.90;;;;;;5053427;28;20029;-39
2023/07/25 06:15:55;;;;;;;4.68;0.88;;;15.50;99.90;;;;;;5053422;28;20440;-40
2023/07/25 06:18:20;;;;;;;2.75;0.57;;;15.50;99.90;;;;;;5053329;28;20488;-42
2023/07/25 06:20:47;;;;;;;4.18;1.00;;;15.50;99.90;;;;;;5052572;28;20025;-39
2023/07/25 06:23:13;;;;;;;3.72;1.13;;;15.60;99.90;;;;;;5052484;28;20020;-40
2023/07/25 06:25:39;;;;;;;4.20;1.10;;;15.70;99.90;;;;;;5053374;28;20083;-43
2023/07/25 06:28:05;;;;;;;1.60;0.73;;;15.70;99.90;;;;;;5053191;28;20382;-42
2023/07/25 06:30:32;;;;;;;5.85;0.93;;;15.70;99.90;;;;;;5043594;28;20054;-41
2023/07/25 06:32:57;;;;;;;4.97;0.70;;;15.70;99.90;;;;;;5048091;28;20642;-41
2023/07/25 06:35:23;;;;;;;3.67;1.23;;;15.70;99.90;;;;;;5045105;28;20331;-40
2023/07/25 06:37:49;;;;;;;6.07;1.67;;;15.70;99.90;;;;;;5043821;28;20021;-40
2023/07/25 06:40:14;;;;;;;9.95;1.00;;;15.70;99.90;;;;;;5043371;28;20478;-38
2023/07/25 06:42:40;;;;;;;17.58;1.50;;;15.80;99.90;;;;;;5043050;28;20517;-41
2023/07/25 06:45:07;;;;;;;2.88;0.73;;;16.10;99.90;;;;;;5052875;28;20028;-38
2023/07/25 06:47:33;;;;;;;2.63;0.80;;;16.40;99.90;;;;;;5035491;28;20028;-40
2023/07/25 06:49:59;;;;;;;4.72;1.50;;;17.30;99.90;;;;;;5032994;28;20402;-39
2023/07/25 06:52:25;;;;;;;6.18;1.15;;;18.40;99.90;;;;;;5037319;28;20013;-44
2023/07/25 06:54:51;;;;;;;3.65;0.82;;;19.20;99.90;;;;;;5048897;28;20465;-39
2023/07/25 06:57:16;;;;;;;2.75;0.85;;;20.50;99.90;;;;;;5052154;28;20025;-41
2023/07/25 06:59:42;;;;;;;3.53;1.10;;;21.70;99.90;;;;;;5048358;28;20463;-41
2023/07/25 07:02:08;;;;;;;5.32;1.02;;;22.30;99.90;;;;;;5050597;28;20025;-40
2023/07/25 07:04:33;;;;;;;7.03;0.60;;;22.70;99.90;;;;;;5052033;28;20503;-43
2023/07/25 07:06:59;;;;;;;3.17;0.75;;;22.60;99.90;;;;;;5051526;28;20116;-40
2023/07/25 07:09:24;;;;;;;1.23;0.77;;;22.10;99.90;;;;;;5047706;28;20040;-39
2023/07/25 07:11:50;;;;;;;2.72;0.63;;;21.60;99.90;;;;;;5050406;28;20415;-43
2023/07/25 07:14:16;;;;;;;2.45;0.50;;;21.40;99.90;;;;;;5048140;28;20048;-38
2023/07/25 07:16:41;;;;;;;2.28;0.60;;;21.20;99.90;;;;;;5051110;28;20056;-38
2023/07/25 07:19:07;;;;;;;0.65;0.65;;;20.90;99.90;;;;;;5053062;28;20024;-40
2023/07/25 07:21:33;;;;;;;1.13;0.60;;;20.90;99.90;;;;;;5056646;28;20021;-40
2023/07/25 07:23:59;;;;;;;5.32;0.57;;;20.80;99.90;;;;;;5052218;28;20028;-44
2023/07/25 07:26:24;;;;;;;3.20;0.47;;;20.80;99.90;;;;;;5053469;28;20155;-47
2023/07/25 07:28:50;;;;;;;3.55;0.55;;;20.50;99.90;;;;;;5053840;28;20029;-42
2023/07/25 07:31:21;;;;;;;2.22;0.30;;;20.30;99.90;;;;;;5052446;28;20466;-47
2023/07/25 07:33:47;;;;;;;1.35;0.47;;;20.10;99.90;;;;;;5051441;28;20029;-47
2023/07/25 07:36:13;;;;;;;2.58;0.50;;;19.60;99.90;;;;;;5050193;28;20039;-41
2023/07/25 07:38:38;;;;;;;4.30;0.57;;;19.00;99.90;;;;;;5054163;28;20021;-42
2023/07/25 07:41:04;;;;;;;2.35;0.43;;;18.50;99.90;;;;;;5052983;28;20032;-40
2023/07/25 07:43:29;;;;;;;1.38;0.20;;;18.20;99.90;;;;;;5052955;28;20524;-42
2023/07/25 07:45:57;;;;;;;7.25;1.38;;;18.00;99.90;;;;;;5055122;28;20052;-40
2023/07/25 07:48:23;;;;;;;0.85;0.43;;;17.90;99.90;;;;;;5054947;28;20385;-41
2023/07/25 07:50:49;;;;;;;3.15;1.05;;;17.90;99.90;;;;;;5054692;28;20032;-42
2023/07/25 07:53:15;;;;;;;0.47;0.47;;;17.80;99.90;;;;;;5050213;28;20029;-43
2023/07/25 07:55:41;;;;;;;1.55;0.45;;;17.70;99.90;;;;;;5052237;28;20049;-41
2023/07/25 07:58:06;;;;;;;1.40;0.43;;;17.70;99.90;;;;;;5055830;28;20028;-41
2023/07/25 08:00:32;;;;;;;3.88;0.57;;;17.80;99.90;;;;;;5053930;28;20442;-43
2023/07/25 08:02:58;;;;;;;1.85;0.77;;;17.80;99.90;;;;;;5053393;28;20017;-44
2023/07/25 08:05:24;;;;;;;2.85;0.40;;;18.10;99.90;;;;;;5054257;28;20115;-47
2023/07/25 08:07:50;;;;;;;2.03;0.30;;;18.10;99.90;;;;;;5055587;28;20029;-41
2023/07/25 08:10:15;;;;;;;1.85;0.20;;;18.00;99.90;;;;;;5054098;28;20504;-48
2023/07/25 08:12:41;;;;;;;1.63;0.50;;;18.00;99.90;;;;;;5055634;28;20017;-41
2023/07/25 08:15:07;;;;;;;0.90;0.30;;;18.20;99.90;;;;;;5055691;28;20033;-42
2023/07/25 08:17:33;;;;;;;2.75;0.40;;;18.20;99.90;;;;;;5055142;28;20138;-40
2023/07/25 08:19:59;;;;;;;1.25;0.40;;;18.30;99.90;;;;;;5055899;28;20025;-42
2023/07/25 08:22:25;;;;;;;4.13;0.88;;;18.60;99.90;;;;;;5054787;28;20516;-42
2023/07/25 08:24:53;;;;;;;6.97;0.63;;;18.50;99.90;;;;;;5055420;28;20048;-43
2023/07/25 08:27:18;;;;;;;0.30;0.28;;;18.40;99.90;;;;;;5055716;28;20051;-52
2023/07/25 08:29:48;;;;;;;2.45;0.35;;;18.30;99.90;;;;;;5055344;28;20040;-54
2023/07/25 08:32:14;;;;;;;1.10;0.25;;;18.30;99.90;;;;;;5054491;28;20385;-51
2023/07/25 08:34:40;;;;;;;4.68;0.68;;;18.50;99.90;;;;;;5054540;28;20013;-54
2023/07/25 08:37:07;;;;;;;3.83;0.40;;;18.70;99.90;;;;;;5055378;28;20063;-57
2023/07/25 08:39:34;;;;;;;4.03;0.40;;;18.70;99.90;;;;;;5054429;28;20188;-48
2023/07/25 08:42:04;;;;;;;0.47;0.43;;;18.80;99.90;;;;;;5054808;28;20033;-53
2023/07/25 08:44:34;;;;;;;1.67;0.43;;;18.70;99.90;;;;;;5055668;28;20025;-41
2023/07/25 08:47:12;;;;;;;0.35;0.35;;;18.80;99.90;;;;;;5055365;28;20484;-42
2023/07/25 08:49:40;;;;;;;4.65;0.38;;;18.90;99.90;;;;;;5055126;28;20103;-41
2023/07/25 08:52:08;;;;;;;1.75;0.30;;;18.70;99.90;;;;;;5045199;28;20071;-43
2023/07/25 08:54:36;;;;;;;2.53;0.45;;;18.50;99.90;;;;;;5046451;28;20029;-40
2023/07/25 08:57:02;;;;;;;3.28;0.40;;;18.30;99.90;;;;;;5046777;28;20029;-42
2023/07/25 08:59:30;;;;;;;2.30;0.35;;;18.10;99.90;;;;;;5048634;28;20075;-43
2023/07/25 09:01:57;;;;;;;0.75;0.15;;;17.90;99.90;;;;;;5046963;28;20040;-39
2023/07/25 09:04:24;;;;;;;0.47;0.45;;;17.80;99.90;;;;;;5053901;28;20028;-53
2023/07/25 09:06:50;;;;;;;;;;;17.90;99.90;;;;;;5048304;28;20021;-52
2023/07/25 09:09:16;;;;;;;2.92;0.73;;;17.90;99.90;;;;;;5050877;28;20067;-52
2023/07/25 09:11:44;;;;;;;4.95;0.30;;;18.30;99.90;;;;;;5051459;28;20025;-53
2023/07/25 09:14:11;;;;;;;0.65;0.20;;;18.50;99.90;;;;;;5054355;28;20045;-60
2023/07/25 09:16:36;;;;;;;3.80;0.40;;;18.50;99.90;;;;;;5054480;28;20496;-49
2023/07/25 09:19:02;;;;;;;1.58;0.28;;;18.60;99.90;;;;;;5051178;28;20017;-51
2023/07/25 09:21:28;;;;;;;2.50;0.30;;;18.60;99.90;;;;;;5052331;28;20027;-46
2023/07/25 09:23:58;;;;;;;0.50;0.30;;;18.50;99.90;;;;;;5050248;28;20052;-50
2023/07/25 09:26:26;;;;;;;0.57;0.30;;;18.60;99.90;;;;;;5048547;28;20072;-53
2023/07/25 09:28:59;;;;;;;1.98;0.40;;;18.50;99.90;;;;;;5047844;28;20024;-53
2023/07/25 09:31:26;;;;;;;3.05;0.52;;;18.30;99.90;;;;;;5052849;28;20013;-50
2023/07/25 09:33:54;;;;;;;2.35;0.32;;;18.10;99.90;;;;;;5054260;28;20021;-51
2023/07/25 09:36:20;;;;;;;2.25;0.40;;;18.30;99.90;;;;;;5054128;28;20027;-53
2023/07/25 09:38:54;;;;;;;0.95;0.28;;;18.60;99.90;;;;;;5054419;28;20428;-50
2023/07/25 09:41:24;;;;;;;3.13;0.40;;;18.70;99.90;;;;;;5052518;28;20025;-52
2023/07/25 09:43:51;;;;;;;2.38;0.50;;;18.60;99.90;;;;;;5044858;28;20497;-52
2023/07/25 09:46:17;;;;;;;2.40;0.30;;;18.70;99.90;;;;;;5052272;28;20478;-51
2023/07/25 09:48:44;;;;;;;2.92;0.43;;;19.00;99.90;;;;;;5053522;28;20090;-53
2023/07/25 09:51:11;;;;;;;1.05;0.20;;;19.40;99.90;;;;;;5051689;28;20028;-53
2023/07/25 09:53:38;;;;;;;0.28;0.20;;;19.50;99.90;;;;;;5049806;28;20504;-52
2023/07/25 09:56:04;;;;;;;2.45;0.45;;;19.30;99.90;;;;;;5044087;28;20381;-53
2023/07/25 09:58:31;;;;;;;5.43;0.50;;;19.20;99.90;;;;;;5034454;28;20029;-50
2023/07/25 10:00:57;;;;;;;2.75;0.57;;;19.20;99.90;;;;;;5037910;28;20029;-52
2023/07/25 10:03:24;;;;;;;0.33;0.27;;;19.00;99.90;;;;;;5054542;28;20436;-51
2023/07/25 10:05:50;;;;;;;0.80;0.25;;;19.10;99.90;;;;;;5053776;28;20108;-51
2023/07/25 10:08:17;;;;;;;0.97;0.30;;;19.20;99.90;;;;;;5053758;28;20543;-52
2023/07/25 10:10:43;;;;;;;2.05;0.20;;;19.00;99.90;;;;;;5053479;28;20219;-51
2023/07/25 10:13:09;;;;;;;0.43;0.30;;;19.10;99.90;;;;;;5053540;28;20017;-51
2023/07/25 10:15:36;;;;;;;0.30;0.20;;;19.50;99.90;;;;;;5053469;28;20063;-53
2023/07/25 10:18:21;;;;;;;0.30;0.22;;;20.10;99.90;;;;;;5052690;28;20059;-49
2023/07/25 10:20:48;;;;;;;1.00;0.40;;;20.20;99.90;;;;;;5052480;28;20024;-52
2023/07/25 10:23:14;;;;;;;2.83;0.30;;;20.40;99.90;;;;;;5053305;28;20020;-54
2023/07/25 10:25:40;;;;;;;0.20;0.17;;;20.80;98.80;;;;;;5053125;28;20503;-50
2023/07/25 10:28:06;;;;;;;1.92;0.32;;;21.10;99.30;;;;;;5053224;28;20510;-49
2023/07/25 10:30:41;;;;;;;1.13;0.30;;;21.40;98.50;;;;;;5053214;28;20021;-53
2023/07/25 10:33:07;;;;;;;0.20;0.20;;;21.60;98.90;;;;;;5053436;28;20103;-52
2023/07/25 10:35:52;;;;;;;3.30;0.70;;;21.70;97.90;;;;;;5052689;28;20044;-53
2023/07/25 10:38:38;;;;;;;0.68;0.20;;;21.00;99.40;;;;;;5037944;28;20379;-51
2023/07/25 10:41:16;;;;;;;1.08;0.25;;;20.30;99.90;;;;;;5051186;28;20535;-53
2023/07/25 10:43:55;;;;;;;0.40;0.40;;;19.60;99.60;;;;;;5052600;28;20053;-43
2023/07/25 10:46:32;;;;;;;4.15;1.10;;;19.10;99.90;;;;;;5050641;28;20029;-44
2023/07/25 10:49:16;;;;;;;2.42;0.50;;;18.90;99.90;;;;;;5049997;28;20039;-40
2023/07/25 10:51:53;;;;;;;0.50;0.40;;;18.70;99.90;;;;;;5033271;28;20028;-40
2023/07/25 10:54:21;;;;;;;1.60;0.38;;;18.50;99.90;;;;;;5046785;28;20033;-40
2023/07/25 10:57:14;;;;;;;2.40;0.40;;;18.30;99.90;;;;;;5044906;28;20024;-40
2023/07/25 10:59:56;;;;;;;3.42;0.50;;;18.20;99.90;;;;;;5046718;28;20052;-46
2023/07/25 11:02:33;;;;;;;0.73;0.30;;;18.30;99.90;;;;;;5040069;28;20021;-39
2023/07/25 11:05:14;;;;;;;5.47;0.77;;;18.50;99.90;;;;;;5045911;28;20032;-43
2023/07/25 11:07:46;;;;;;;1.73;0.45;;;19.10;99.90;;;;;;5047947;28;20025;-41
2023/07/25 11:10:24;;;;;;;0.30;0.30;;;19.30;99.90;;;;;;5038649;28;20477;-42
2023/07/25 11:12:54;;;;;;;1.85;0.35;;;19.10;99.90;;;;;;5047864;28;20040;-42
2023/07/25 11:15:20;;;;;;;0.50;0.40;;;18.90;99.90;;;;;;5041632;28;20029;-41
2023/07/25 11:17:47;;;;;;;0.50;0.50;;;18.70;99.90;;;;;;5041551;28;20075;-41
2023/07/25 11:20:16;;;;;;;0.25;0.25;;;18.50;99.90;;;;;;5041351;28;20109;-41
2023/07/25 11:22:42;;;;;;;0.82;0.50;;;18.40;99.90;;;;;;5041954;28;20104;-40
2023/07/25 11:25:08;;;;;;;6.85;0.68;;;18.40;99.90;;;;;;5048627;28;20037;-40
2023/07/25 11:27:41;;;;;;;5.47;0.63;;;18.40;99.90;;;;;;5042966;28;20040;-43
2023/07/25 11:30:16;;;;;;;1.88;0.50;;;18.60;99.90;;;;;;5039906;28;20033;-40
2023/07/25 11:32:51;;;;;;;0.75;0.40;;;18.70;99.90;;;;;;5043002;28;20025;-39
2023/07/25 11:35:17;;;;;;;1.20;0.40;;;18.60;99.90;;;;;;5039514;28;20033;-39
2023/07/25 11:37:47;;;;;;;2.40;0.50;;;18.40;99.90;;;;;;5034139;28;20302;-42
2023/07/25 11:40:17;;;;;;;1.60;0.95;;;18.40;99.90;;;;;;5044151;28;20112;-41
2023/07/25 11:42:46;;;;;;;3.40;0.60;;;18.40;99.90;;;;;;5049803;28;20032;-38
2023/07/25 11:45:13;;;;;;;0.40;0.30;;;18.50;99.90;;;;;;5046547;28;20039;-40
2023/07/25 11:47:41;;;;;;;2.20;0.55;;;18.40;99.90;;;;;;5047607;28;20112;-42
2023/07/25 11:50:09;;;;;;;0.30;0.30;;;18.30;99.90;;;;;;5050163;28;20025;-39
2023/07/25 11:52:37;;;;;;;1.73;0.77;;;18.40;99.90;;;;;;5049923;28;20032;-40
2023/07/25 11:55:04;;;;;;;0.22;0.22;;;18.50;99.90;;;;;;5044321;28;20431;-43
2023/07/25 11:57:30;;;;;;;2.43;0.20;;;18.60;99.90;;;;;;5046372;28;20364;-43
2023/07/25 11:59:56;;;;;;;0.28;0.20;;;19.00;99.90;;;;;;5048049;28;20397;-39
2023/07/25 12:02:26;;;;;;;1.00;0.52;;;19.30;99.90;;;;;;5048753;28;20112;-42
2023/07/25 12:04:52;;;;;;;2.45;0.57;;;19.70;99.90;;;;;;5048759;28;20057;-40
2023/07/25 12:07:18;;;;;;;0.50;0.50;;;20.00;99.90;;;;;;5044986;28;20545;-39
2023/07/25 12:09:52;;;;;;;2.35;0.47;;;19.80;99.90;;;;;;5041550;28;20478;-39
2023/07/25 12:12:19;;;;;;;1.08;0.50;;;19.30;99.90;;;;;;5037896;28;20088;-41
2023/07/25 12:14:56;;;;;;;1.80;0.60;;;19.00;99.90;;;;;;5047119;28;20066;-44
2023/07/25 12:17:21;;;;;;;0.30;0.30;;;18.80;99.90;;;;;;5047172;28;20473;-47
2023/07/25 12:19:53;;;;;;;2.33;0.60;;;18.70;99.90;;;;;;5043224;28;20017;-40
2023/07/25 12:22:20;;;;;;;1.10;0.40;;;18.40;99.90;;;;;;5051133;28;20035;-39
2023/07/25 12:24:47;;;;;;;3.08;0.75;;;18.40;99.90;;;;;;5048969;28;20478;-41
2023/07/25 12:27:17;;;;;;;0.80;0.55;;;18.60;99.90;;;;;;5048977;28;20035;-39
2023/07/25 12:29:43;;;;;;;1.77;0.77;;;18.70;99.90;;;;;;5049254;28;20075;-41
2023/07/25 12:32:08;;;;;;;0.20;0.20;;;18.80;99.90;;;;;;5055496;28;20420;-45
2023/07/25 12:34:34;;;;;;;1.40;0.50;;;18.80;99.90;;;;;;5054661;28;20420;-40
2023/07/25 12:37:02;;;;;;;0.20;0.20;;;18.90;99.90;;;;;;5054828;28;20051;-43
2023/07/25 12:39:31;;;;;;;0.82;0.32;;;19.30;99.90;;;;;;5054302;28;20082;-44
2023/07/25 12:41:57;;;;;;;1.58;0.80;;;19.40;99.90;;;;;;5053729;28;20033;-41
2023/07/25 12:44:23;;;;;;;2.13;0.63;;;19.20;99.90;;;;;;5053076;28;20473;-40
2023/07/25 12:46:48;;;;;;;3.13;0.55;;;19.10;99.90;;;;;;5051136;28;20016;-39
2023/07/25 12:49:14;;;;;;;1.35;0.30;;;19.00;99.90;;;;;;5046560;28;20049;-44
2023/07/25 12:51:39;;;;;;;2.70;0.50;;;18.90;99.90;;;;;;5052985;28;20021;-44
2023/07/25 12:54:05;;;;;;;0.52;0.50;;;18.90;99.90;;;;;;5053454;28;20025;-42
2023/07/25 12:56:31;;;;;;;2.80;0.85;;;19.00;99.90;;;;;;5055001;28;20024;-43
2023/07/25 12:58:56;;;;;;;2.15;0.40;;;19.00;99.90;;;;;;5043800;28;20431;-41
2023/07/25 13:01:22;;;;;;;2.67;0.47;;;19.00;99.90;;;;;;5043507;28;20513;-40
2023/07/25 13:03:48;;;;;;;1.00;0.20;;;19.10;99.90;;;;;;5043082;28;20501;-43
2023/07/25 13:06:13;;;;;;;1.40;0.38;;;19.30;99.90;;;;;;5044080;28;20103;-42
2023/07/25 13:08:39;;;;;;;0.45;0.45;;;19.20;99.90;;;;;;5044157;28;20028;-41
2023/07/25 13:11:05;;;;;;;2.63;0.93;;;19.00;99.90;;;;;;5040666;28;20030;-40
2023/07/25 13:13:30;;;;;;;0.65;0.40;;;19.00;99.90;;;;;;5043447;28;20540;-40
2023/07/25 13:15:56;;;;;;;3.92;0.43;;;18.80;99.90;;;;;;5044754;28;20437;-42
2023/07/25 13:18:22;;;;;;;1.85;0.88;;;18.80;99.90;;;;;;5044351;28;20021;-41
2023/07/25 13:20:48;;;;;;;1.95;0.40;;;18.80;99.90;;;;;;5043468;28;20462;-41
2023/07/25 13:23:13;;;;;;;0.65;0.35;;;18.80;99.90;;;;;;5042124;28;20466;-39
2023/07/25 13:25:43;;;;;;;0.65;0.20;;;18.70;99.90;;;;;;5040631;28;20109;-46